sensor_id;sensor_type;location;lat;lon;timestamp;P1;durP1;ratioP1;P2;durP2;ratioP2
31210;SDS011;17836;50.948;3.946;2023-11-22T00:01:07;27.67;;;16.45;;
31210;SDS011;17836;50.948;3.946;2023-11-22T00:03:34;26.55;;;17.60;;
31210;SDS011;17836;50.948;3.946;2023-11-22T00:05:59;29.67;;;18.75;;
31210;SDS011;17836;50.948;3.946;2023-11-22T00:08:27;25.25;;;16.88;;
31210;SDS011;17836;50.948;3.946;2023-11-22T00:10:54;26.73;;;18.00;;
31210;SDS011;17836;50.948;3.946;2023-11-22T00:13:19;25.77;;;17.48;;
31210;SDS011;17836;50.948;3.946;2023-11-22T00:15:45;28.10;;;17.95;;
31210;SDS011;17836;50.948;3.946;2023-11-22T00:18:10;27.73;;;17.07;;
31210;SDS011;17836;50.948;3.946;2023-11-22T00:20:35;28.50;;;17.27;;
31210;SDS011;17836;50.948;3.946;2023-11-22T00:23:01;25.70;;;17.33;;
31210;SDS011;17836;50.948;3.946;2023-11-22T00:25:29;26.45;;;17.00;;
31210;SDS011;17836;50.948;3.946;2023-11-22T00:27:55;25.20;;;17.33;;
31210;SDS011;17836;50.948;3.946;2023-11-22T00:30:20;29.63;;;18.30;;
31210;SDS011;17836;50.948;3.946;2023-11-22T00:32:48;25.15;;;16.58;;
31210;SDS011;17836;50.948;3.946;2023-11-22T00:35:14;22.95;;;16.42;;
31210;SDS011;17836;50.948;3.946;2023-11-22T00:37:39;24.40;;;17.20;;
31210;SDS011;17836;50.948;3.946;2023-11-22T00:40:07;28.58;;;16.75;;
31210;SDS011;17836;50.948;3.946;2023-11-22T00:42:39;26.35;;;17.35;;
31210;SDS011;17836;50.948;3.946;2023-11-22T00:45:06;23.02;;;16.15;;
31210;SDS011;17836;50.948;3.946;2023-11-22T00:47:32;25.10;;;15.48;;
31210;SDS011;17836;50.948;3.946;2023-11-22T00:50:00;24.02;;;16.63;;
31210;SDS011;17836;50.948;3.946;2023-11-22T00:52:26;25.65;;;16.60;;
31210;SDS011;17836;50.948;3.946;2023-11-22T00:54:51;22.33;;;16.17;;
31210;SDS011;17836;50.948;3.946;2023-11-22T00:57:16;24.90;;;16.37;;
31210;SDS011;17836;50.948;3.946;2023-11-22T00:59:42;22.10;;;15.38;;
31210;SDS011;17836;50.948;3.946;2023-11-22T01:02:07;26.02;;;15.85;;
31210;SDS011;17836;50.948;3.946;2023-11-22T01:04:34;21.15;;;14.80;;
31210;SDS011;17836;50.948;3.946;2023-11-22T01:07:00;26.25;;;15.68;;
31210;SDS011;17836;50.948;3.946;2023-11-22T01:09:26;21.25;;;14.63;;
31210;SDS011;17836;50.948;3.946;2023-11-22T01:11:54;21.23;;;14.20;;
31210;SDS011;17836;50.948;3.946;2023-11-22T01:14:21;23.17;;;16.02;;
31210;SDS011;17836;50.948;3.946;2023-11-22T02:07:05;17.25;;;12.80;;
31210;SDS011;17836;50.948;3.946;2023-11-22T02:09:30;23.75;;;13.25;;
31210;SDS011;17836;50.948;3.946;2023-11-22T02:11:55;21.23;;;13.57;;
31210;SDS011;17836;50.948;3.946;2023-11-22T02:14:20;23.27;;;13.33;;
31210;SDS011;17836;50.948;3.946;2023-11-22T02:19:49;18.65;;;13.40;;
31210;SDS011;17836;50.948;3.946;2023-11-22T02:22:14;20.87;;;13.43;;
31210;SDS011;17836;50.948;3.946;2023-11-22T02:24:40;20.15;;;13.32;;
31210;SDS011;17836;50.948;3.946;2023-11-22T02:27:05;18.48;;;13.40;;
31210;SDS011;17836;50.948;3.946;2023-11-22T02:29:31;21.83;;;13.45;;
31210;SDS011;17836;50.948;3.946;2023-11-22T02:31:59;18.70;;;12.95;;
31210;SDS011;17836;50.948;3.946;2023-11-22T02:34:24;19.55;;;13.30;;
31210;SDS011;17836;50.948;3.946;2023-11-22T02:36:53;16.98;;;12.25;;
31210;SDS011;17836;50.948;3.946;2023-11-22T02:39:18;15.07;;;11.90;;
31210;SDS011;17836;50.948;3.946;2023-11-22T02:41:43;17.33;;;11.60;;
31210;SDS011;17836;50.948;3.946;2023-11-22T02:44:12;14.93;;;11.65;;
31210;SDS011;17836;50.948;3.946;2023-11-22T02:46:42;15.05;;;10.85;;
31210;SDS011;17836;50.948;3.946;2023-11-22T02:49:07;13.73;;;10.35;;
31210;SDS011;17836;50.948;3.946;2023-11-22T02:51:33;13.00;;;10.35;;
31210;SDS011;17836;50.948;3.946;2023-11-22T02:53:59;15.10;;;11.63;;
31210;SDS011;17836;50.948;3.946;2023-11-22T02:56:24;15.45;;;11.50;;
31210;SDS011;17836;50.948;3.946;2023-11-22T02:58:53;14.45;;;11.20;;
31210;SDS011;17836;50.948;3.946;2023-11-22T03:01:18;18.70;;;12.07;;
31210;SDS011;17836;50.948;3.946;2023-11-22T03:03:44;18.40;;;11.88;;
31210;SDS011;17836;50.948;3.946;2023-11-22T03:06:09;17.65;;;11.90;;
31210;SDS011;17836;50.948;3.946;2023-11-22T03:08:34;16.40;;;11.07;;
31210;SDS011;17836;50.948;3.946;2023-11-22T03:11:00;21.35;;;12.10;;
31210;SDS011;17836;50.948;3.946;2023-11-22T03:13:25;18.80;;;12.38;;
31210;SDS011;17836;50.948;3.946;2023-11-22T03:15:50;19.50;;;12.50;;
31210;SDS011;17836;50.948;3.946;2023-11-22T03:18:15;16.92;;;12.10;;
31210;SDS011;17836;50.948;3.946;2023-11-22T03:20:41;16.75;;;10.88;;
31210;SDS011;17836;50.948;3.946;2023-11-22T03:23:08;99.38;;;11.82;;
31210;SDS011;17836;50.948;3.946;2023-11-22T03:25:35;54.70;;;10.07;;
31210;SDS011;17836;50.948;3.946;2023-11-22T03:28:01;17.65;;;11.75;;
31210;SDS011;17836;50.948;3.946;2023-11-22T03:30:26;16.05;;;10.95;;
31210;SDS011;17836;50.948;3.946;2023-11-22T03:32:51;15.47;;;10.93;;
31210;SDS011;17836;50.948;3.946;2023-11-22T03:35:16;24.88;;;14.05;;
31210;SDS011;17836;50.948;3.946;2023-11-22T03:37:42;24.73;;;14.40;;
31210;SDS011;17836;50.948;3.946;2023-11-22T03:40:07;21.52;;;14.95;;
31210;SDS011;17836;50.948;3.946;2023-11-22T03:42:32;21.13;;;12.75;;
31210;SDS011;17836;50.948;3.946;2023-11-22T03:44:58;22.20;;;13.35;;
31210;SDS011;17836;50.948;3.946;2023-11-22T03:47:27;19.05;;;12.48;;
31210;SDS011;17836;50.948;3.946;2023-11-22T03:49:52;23.23;;;13.50;;
31210;SDS011;17836;50.948;3.946;2023-11-22T03:52:17;20.15;;;12.70;;
31210;SDS011;17836;50.948;3.946;2023-11-22T03:54:43;21.80;;;13.83;;
31210;SDS011;17836;50.948;3.946;2023-11-22T03:57:08;23.00;;;13.63;;
31210;SDS011;17836;50.948;3.946;2023-11-22T03:59:34;23.55;;;12.90;;
31210;SDS011;17836;50.948;3.946;2023-11-22T04:01:59;20.17;;;13.07;;
31210;SDS011;17836;50.948;3.946;2023-11-22T04:04:24;23.37;;;15.23;;
31210;SDS011;17836;50.948;3.946;2023-11-22T04:06:50;20.60;;;12.47;;
31210;SDS011;17836;50.948;3.946;2023-11-22T04:09:18;19.58;;;12.88;;
31210;SDS011;17836;50.948;3.946;2023-11-22T04:11:45;19.58;;;13.27;;
31210;SDS011;17836;50.948;3.946;2023-11-22T04:14:11;22.50;;;12.85;;
31210;SDS011;17836;50.948;3.946;2023-11-22T04:16:36;19.00;;;13.05;;
31210;SDS011;17836;50.948;3.946;2023-11-22T04:19:02;20.75;;;13.60;;
31210;SDS011;17836;50.948;3.946;2023-11-22T04:21:27;18.67;;;13.10;;
31210;SDS011;17836;50.948;3.946;2023-11-22T04:23:52;27.10;;;14.30;;
31210;SDS011;17836;50.948;3.946;2023-11-22T04:26:17;41.27;;;14.60;;
31210;SDS011;17836;50.948;3.946;2023-11-22T04:28:45;23.67;;;15.25;;
31210;SDS011;17836;50.948;3.946;2023-11-22T04:31:10;23.98;;;16.30;;
31210;SDS011;17836;50.948;3.946;2023-11-22T04:33:36;22.23;;;14.90;;
31210;SDS011;17836;50.948;3.946;2023-11-22T04:36:01;27.95;;;17.58;;
31210;SDS011;17836;50.948;3.946;2023-11-22T04:38:26;27.83;;;16.63;;
31210;SDS011;17836;50.948;3.946;2023-11-22T04:40:52;21.65;;;15.43;;
31210;SDS011;17836;50.948;3.946;2023-11-22T04:43:18;22.83;;;15.68;;
31210;SDS011;17836;50.948;3.946;2023-11-22T04:45:43;24.15;;;15.75;;
31210;SDS011;17836;50.948;3.946;2023-11-22T04:48:08;23.73;;;15.52;;
31210;SDS011;17836;50.948;3.946;2023-11-22T04:50:34;28.33;;;16.35;;
31210;SDS011;17836;50.948;3.946;2023-11-22T04:53:00;25.25;;;15.40;;
31210;SDS011;17836;50.948;3.946;2023-11-22T04:55:27;22.33;;;13.65;;
31210;SDS011;17836;50.948;3.946;2023-11-22T04:57:55;24.48;;;14.35;;
31210;SDS011;17836;50.948;3.946;2023-11-22T05:00:23;20.98;;;13.90;;
31210;SDS011;17836;50.948;3.946;2023-11-22T05:02:49;24.90;;;15.45;;
31210;SDS011;17836;50.948;3.946;2023-11-22T05:05:16;24.60;;;14.40;;
31210;SDS011;17836;50.948;3.946;2023-11-22T05:07:42;25.52;;;15.05;;
31210;SDS011;17836;50.948;3.946;2023-11-22T05:10:08;24.48;;;15.43;;
31210;SDS011;17836;50.948;3.946;2023-11-22T05:12:34;25.33;;;15.77;;
31210;SDS011;17836;50.948;3.946;2023-11-22T05:15:00;27.27;;;15.50;;
31210;SDS011;17836;50.948;3.946;2023-11-22T05:17:25;21.30;;;13.65;;
31210;SDS011;17836;50.948;3.946;2023-11-22T05:19:50;22.70;;;14.27;;
31210;SDS011;17836;50.948;3.946;2023-11-22T05:22:16;21.48;;;14.15;;
31210;SDS011;17836;50.948;3.946;2023-11-22T05:24:44;20.75;;;14.45;;
31210;SDS011;17836;50.948;3.946;2023-11-22T05:27:11;19.33;;;13.57;;
31210;SDS011;17836;50.948;3.946;2023-11-22T05:29:37;23.98;;;14.52;;
31210;SDS011;17836;50.948;3.946;2023-11-22T05:32:03;20.40;;;14.48;;
31210;SDS011;17836;50.948;3.946;2023-11-22T05:34:28;19.45;;;13.93;;
31210;SDS011;17836;50.948;3.946;2023-11-22T05:36:54;18.45;;;12.55;;
31210;SDS011;17836;50.948;3.946;2023-11-22T05:39:20;21.45;;;14.30;;
31210;SDS011;17836;50.948;3.946;2023-11-22T05:41:47;24.85;;;13.52;;
31210;SDS011;17836;50.948;3.946;2023-11-22T05:44:12;22.35;;;14.52;;
31210;SDS011;17836;50.948;3.946;2023-11-22T05:46:38;27.47;;;14.23;;
31210;SDS011;17836;50.948;3.946;2023-11-22T05:49:03;24.33;;;15.48;;
31210;SDS011;17836;50.948;3.946;2023-11-22T05:51:29;24.30;;;13.85;;
31210;SDS011;17836;50.948;3.946;2023-11-22T05:53:54;20.27;;;13.97;;
31210;SDS011;17836;50.948;3.946;2023-11-22T05:56:19;25.67;;;14.65;;
31210;SDS011;17836;50.948;3.946;2023-11-22T05:58:44;22.20;;;13.63;;
31210;SDS011;17836;50.948;3.946;2023-11-22T06:01:12;20.83;;;13.80;;
31210;SDS011;17836;50.948;3.946;2023-11-22T06:03:37;22.50;;;14.67;;
31210;SDS011;17836;50.948;3.946;2023-11-22T06:06:05;21.27;;;13.90;;
31210;SDS011;17836;50.948;3.946;2023-11-22T06:08:33;22.15;;;13.82;;
31210;SDS011;17836;50.948;3.946;2023-11-22T06:10:58;20.10;;;13.75;;
31210;SDS011;17836;50.948;3.946;2023-11-22T06:13:24;20.25;;;13.27;;
31210;SDS011;17836;50.948;3.946;2023-11-22T06:15:50;19.75;;;12.77;;
31210;SDS011;17836;50.948;3.946;2023-11-22T06:18:15;19.50;;;13.05;;
31210;SDS011;17836;50.948;3.946;2023-11-22T06:20:43;21.52;;;14.65;;
31210;SDS011;17836;50.948;3.946;2023-11-22T06:23:09;22.23;;;14.30;;
31210;SDS011;17836;50.948;3.946;2023-11-22T06:25:34;24.65;;;14.50;;
31210;SDS011;17836;50.948;3.946;2023-11-22T06:28:01;23.77;;;14.90;;
31210;SDS011;17836;50.948;3.946;2023-11-22T06:30:28;22.23;;;14.52;;
31210;SDS011;17836;50.948;3.946;2023-11-22T06:32:55;20.77;;;13.80;;
31210;SDS011;17836;50.948;3.946;2023-11-22T06:35:20;26.48;;;15.73;;
31210;SDS011;17836;50.948;3.946;2023-11-22T06:37:46;32.22;;;17.35;;
31210;SDS011;17836;50.948;3.946;2023-11-22T06:40:11;28.65;;;18.75;;
31210;SDS011;17836;50.948;3.946;2023-11-22T06:42:40;24.80;;;16.08;;
31210;SDS011;17836;50.948;3.946;2023-11-22T06:45:05;23.92;;;15.10;;
31210;SDS011;17836;50.948;3.946;2023-11-22T06:47:34;22.48;;;14.25;;
31210;SDS011;17836;50.948;3.946;2023-11-22T06:50:00;21.75;;;13.55;;
31210;SDS011;17836;50.948;3.946;2023-11-22T06:52:25;21.00;;;12.87;;
31210;SDS011;17836;50.948;3.946;2023-11-22T06:54:50;18.47;;;12.50;;
31210;SDS011;17836;50.948;3.946;2023-11-22T06:57:16;19.83;;;12.40;;
31210;SDS011;17836;50.948;3.946;2023-11-22T06:59:41;19.35;;;11.43;;
31210;SDS011;17836;50.948;3.946;2023-11-22T07:02:06;19.10;;;12.85;;
31210;SDS011;17836;50.948;3.946;2023-11-22T07:04:32;20.52;;;13.23;;
31210;SDS011;17836;50.948;3.946;2023-11-22T07:06:57;24.42;;;14.27;;
31210;SDS011;17836;50.948;3.946;2023-11-22T07:09:23;21.87;;;13.83;;
31210;SDS011;17836;50.948;3.946;2023-11-22T07:11:48;28.57;;;14.47;;
31210;SDS011;17836;50.948;3.946;2023-11-22T07:14:14;34.60;;;16.88;;
31210;SDS011;17836;50.948;3.946;2023-11-22T07:16:41;26.67;;;17.45;;
31210;SDS011;17836;50.948;3.946;2023-11-22T07:19:08;33.50;;;18.63;;
31210;SDS011;17836;50.948;3.946;2023-11-22T07:21:33;37.70;;;20.85;;
31210;SDS011;17836;50.948;3.946;2023-11-22T07:24:01;38.90;;;23.48;;
31210;SDS011;17836;50.948;3.946;2023-11-22T07:26:27;41.47;;;23.42;;
31210;SDS011;17836;50.948;3.946;2023-11-22T07:28:52;41.20;;;23.90;;
31210;SDS011;17836;50.948;3.946;2023-11-22T07:31:17;38.92;;;21.25;;
31210;SDS011;17836;50.948;3.946;2023-11-22T07:33:44;35.72;;;19.30;;
31210;SDS011;17836;50.948;3.946;2023-11-22T07:36:09;31.38;;;19.50;;
31210;SDS011;17836;50.948;3.946;2023-11-22T07:38:35;28.13;;;18.17;;
31210;SDS011;17836;50.948;3.946;2023-11-22T07:41:00;35.95;;;18.83;;
31210;SDS011;17836;50.948;3.946;2023-11-22T07:43:25;26.37;;;16.50;;
31210;SDS011;17836;50.948;3.946;2023-11-22T07:45:53;25.83;;;17.65;;
31210;SDS011;17836;50.948;3.946;2023-11-22T07:48:19;28.45;;;17.00;;
31210;SDS011;17836;50.948;3.946;2023-11-22T07:50:44;29.17;;;16.98;;
31210;SDS011;17836;50.948;3.946;2023-11-22T07:53:10;28.83;;;17.20;;
31210;SDS011;17836;50.948;3.946;2023-11-22T07:55:39;26.38;;;17.23;;
31210;SDS011;17836;50.948;3.946;2023-11-22T07:58:04;33.85;;;17.95;;
31210;SDS011;17836;50.948;3.946;2023-11-22T08:00:33;25.02;;;16.75;;
31210;SDS011;17836;50.948;3.946;2023-11-22T08:02:59;30.48;;;16.88;;
31210;SDS011;17836;50.948;3.946;2023-11-22T08:05:26;30.10;;;18.25;;
31210;SDS011;17836;50.948;3.946;2023-11-22T08:07:53;30.95;;;18.63;;
31210;SDS011;17836;50.948;3.946;2023-11-22T08:10:18;33.58;;;18.50;;
31210;SDS011;17836;50.948;3.946;2023-11-22T08:12:46;27.27;;;17.42;;
31210;SDS011;17836;50.948;3.946;2023-11-22T08:15:13;29.63;;;17.50;;
31210;SDS011;17836;50.948;3.946;2023-11-22T08:17:39;32.00;;;17.92;;
31210;SDS011;17836;50.948;3.946;2023-11-22T08:20:05;30.17;;;18.00;;
31210;SDS011;17836;50.948;3.946;2023-11-22T08:22:37;31.60;;;19.33;;
31210;SDS011;17836;50.948;3.946;2023-11-22T08:25:02;31.23;;;17.50;;
31210;SDS011;17836;50.948;3.946;2023-11-22T08:27:29;35.67;;;18.65;;
31210;SDS011;17836;50.948;3.946;2023-11-22T08:29:54;31.42;;;16.98;;
31210;SDS011;17836;50.948;3.946;2023-11-22T08:32:19;33.05;;;18.60;;
31210;SDS011;17836;50.948;3.946;2023-11-22T08:34:48;34.20;;;19.10;;
31210;SDS011;17836;50.948;3.946;2023-11-22T08:37:13;35.95;;;19.70;;
31210;SDS011;17836;50.948;3.946;2023-11-22T08:39:41;40.67;;;21.17;;
31210;SDS011;17836;50.948;3.946;2023-11-22T08:42:06;31.95;;;19.77;;
31210;SDS011;17836;50.948;3.946;2023-11-22T08:44:35;38.47;;;20.45;;
31210;SDS011;17836;50.948;3.946;2023-11-22T08:47:00;44.65;;;22.02;;
31210;SDS011;17836;50.948;3.946;2023-11-22T08:49:25;41.03;;;22.17;;
31210;SDS011;17836;50.948;3.946;2023-11-22T08:51:50;34.27;;;20.00;;
31210;SDS011;17836;50.948;3.946;2023-11-22T08:54:16;32.75;;;20.33;;
31210;SDS011;17836;50.948;3.946;2023-11-22T08:56:42;34.80;;;20.58;;
31210;SDS011;17836;50.948;3.946;2023-11-22T08:59:07;40.05;;;21.98;;
31210;SDS011;17836;50.948;3.946;2023-11-22T09:01:32;35.67;;;20.48;;
31210;SDS011;17836;50.948;3.946;2023-11-22T09:04:01;38.55;;;21.50;;
31210;SDS011;17836;50.948;3.946;2023-11-22T09:06:26;34.88;;;20.15;;
31210;SDS011;17836;50.948;3.946;2023-11-22T09:08:54;27.27;;;18.85;;
31210;SDS011;17836;50.948;3.946;2023-11-22T09:11:19;43.53;;;24.80;;
31210;SDS011;17836;50.948;3.946;2023-11-22T09:13:47;60.70;;;28.58;;
31210;SDS011;17836;50.948;3.946;2023-11-22T09:16:12;47.92;;;26.50;;
31210;SDS011;17836;50.948;3.946;2023-11-22T09:18:44;53.10;;;28.13;;
31210;SDS011;17836;50.948;3.946;2023-11-22T09:21:09;51.35;;;28.75;;
31210;SDS011;17836;50.948;3.946;2023-11-22T09:23:35;43.15;;;26.27;;
31210;SDS011;17836;50.948;3.946;2023-11-22T09:26:01;46.90;;;26.60;;
31210;SDS011;17836;50.948;3.946;2023-11-22T09:28:30;45.90;;;26.90;;
31210;SDS011;17836;50.948;3.946;2023-11-22T09:30:55;52.50;;;27.65;;
31210;SDS011;17836;50.948;3.946;2023-11-22T09:35:52;42.88;;;26.10;;
31210;SDS011;17836;50.948;3.946;2023-11-22T09:38:17;47.60;;;26.65;;
31210;SDS011;17836;50.948;3.946;2023-11-22T09:43:08;54.45;;;27.20;;
31210;SDS011;17836;50.948;3.946;2023-11-22T09:45:34;42.70;;;25.00;;
31210;SDS011;17836;50.948;3.946;2023-11-22T09:48:00;43.05;;;25.88;;
31210;SDS011;17836;50.948;3.946;2023-11-22T09:52:55;45.65;;;26.05;;
31210;SDS011;17836;50.948;3.946;2023-11-22T09:55:23;46.45;;;25.17;;
31210;SDS011;17836;50.948;3.946;2023-11-22T09:57:52;42.00;;;24.70;;
31210;SDS011;17836;50.948;3.946;2023-11-22T10:00:18;41.75;;;23.38;;
31210;SDS011;17836;50.948;3.946;2023-11-22T10:02:46;42.53;;;23.60;;
31210;SDS011;17836;50.948;3.946;2023-11-22T10:05:12;51.95;;;26.15;;
31210;SDS011;17836;50.948;3.946;2023-11-22T10:07:37;43.78;;;23.63;;
31210;SDS011;17836;50.948;3.946;2023-11-22T10:10:03;50.47;;;25.30;;
31210;SDS011;17836;50.948;3.946;2023-11-22T10:12:30;43.67;;;24.48;;
31210;SDS011;17836;50.948;3.946;2023-11-22T10:15:05;37.83;;;23.55;;
31210;SDS011;17836;50.948;3.946;2023-11-22T10:17:35;39.65;;;23.38;;
31210;SDS011;17836;50.948;3.946;2023-11-22T10:20:01;43.60;;;22.80;;
31210;SDS011;17836;50.948;3.946;2023-11-22T10:22:27;40.00;;;22.88;;
31210;SDS011;17836;50.948;3.946;2023-11-22T10:24:52;35.03;;;20.50;;
31210;SDS011;17836;50.948;3.946;2023-11-22T10:27:20;38.85;;;23.50;;
31210;SDS011;17836;50.948;3.946;2023-11-22T10:29:45;42.63;;;23.02;;
31210;SDS011;17836;50.948;3.946;2023-11-22T10:32:12;36.90;;;21.52;;
31210;SDS011;17836;50.948;3.946;2023-11-22T10:34:37;34.80;;;21.77;;
31210;SDS011;17836;50.948;3.946;2023-11-22T10:37:02;35.08;;;21.52;;
31210;SDS011;17836;50.948;3.946;2023-11-22T10:39:29;33.50;;;21.42;;
31210;SDS011;17836;50.948;3.946;2023-11-22T10:42:00;36.10;;;21.10;;
31210;SDS011;17836;50.948;3.946;2023-11-22T10:44:25;34.97;;;22.40;;
31210;SDS011;17836;50.948;3.946;2023-11-22T10:46:53;34.17;;;20.58;;
31210;SDS011;17836;50.948;3.946;2023-11-22T10:49:22;34.30;;;21.17;;
31210;SDS011;17836;50.948;3.946;2023-11-22T10:51:49;33.20;;;19.70;;
31210;SDS011;17836;50.948;3.946;2023-11-22T10:54:19;32.65;;;20.50;;
31210;SDS011;17836;50.948;3.946;2023-11-22T10:56:46;32.38;;;20.75;;
31210;SDS011;17836;50.948;3.946;2023-11-22T10:59:14;30.45;;;20.60;;
31210;SDS011;17836;50.948;3.946;2023-11-22T11:01:49;29.30;;;20.60;;
31210;SDS011;17836;50.948;3.946;2023-11-22T11:04:23;39.28;;;20.48;;
31210;SDS011;17836;50.948;3.946;2023-11-22T11:06:51;36.40;;;20.80;;
31210;SDS011;17836;50.948;3.946;2023-11-22T11:09:16;35.08;;;22.13;;
31210;SDS011;17836;50.948;3.946;2023-11-22T11:11:46;32.22;;;21.73;;
31210;SDS011;17836;50.948;3.946;2023-11-22T11:14:11;31.25;;;21.02;;
31210;SDS011;17836;50.948;3.946;2023-11-22T11:16:40;35.47;;;20.83;;
31210;SDS011;17836;50.948;3.946;2023-11-22T11:19:12;30.00;;;19.98;;
31210;SDS011;17836;50.948;3.946;2023-11-22T11:21:37;35.45;;;20.52;;
31210;SDS011;17836;50.948;3.946;2023-11-22T11:24:03;27.35;;;18.55;;
31210;SDS011;17836;50.948;3.946;2023-11-22T11:26:31;29.20;;;18.25;;
31210;SDS011;17836;50.948;3.946;2023-11-22T11:28:57;29.90;;;19.10;;
31210;SDS011;17836;50.948;3.946;2023-11-22T11:31:22;26.57;;;18.50;;
31210;SDS011;17836;50.948;3.946;2023-11-22T11:36:16;28.70;;;17.50;;
31210;SDS011;17836;50.948;3.946;2023-11-22T11:38:46;27.75;;;17.75;;
31210;SDS011;17836;50.948;3.946;2023-11-22T11:41:14;25.63;;;17.90;;
31210;SDS011;17836;50.948;3.946;2023-11-22T11:46:09;26.25;;;17.63;;
31210;SDS011;17836;50.948;3.946;2023-11-22T11:48:34;26.38;;;17.75;;
31210;SDS011;17836;50.948;3.946;2023-11-22T11:51:00;25.35;;;16.83;;
31210;SDS011;17836;50.948;3.946;2023-11-22T11:53:26;24.70;;;16.83;;
31210;SDS011;17836;50.948;3.946;2023-11-22T11:55:51;26.50;;;18.38;;
31210;SDS011;17836;50.948;3.946;2023-11-22T11:58:18;27.15;;;18.20;;
31210;SDS011;17836;50.948;3.946;2023-11-22T12:00:43;29.38;;;17.77;;
31210;SDS011;17836;50.948;3.946;2023-11-22T12:03:09;28.85;;;18.10;;
31210;SDS011;17836;50.948;3.946;2023-11-22T12:05:38;31.77;;;18.58;;
31210;SDS011;17836;50.948;3.946;2023-11-22T12:08:03;24.05;;;17.17;;
31210;SDS011;17836;50.948;3.946;2023-11-22T12:10:29;40.55;;;18.15;;
31210;SDS011;17836;50.948;3.946;2023-11-22T12:12:54;25.30;;;17.10;;
31210;SDS011;17836;50.948;3.946;2023-11-22T12:15:23;27.92;;;18.75;;
31210;SDS011;17836;50.948;3.946;2023-11-22T12:17:49;25.17;;;17.85;;
31210;SDS011;17836;50.948;3.946;2023-11-22T12:20:16;26.75;;;17.27;;
31210;SDS011;17836;50.948;3.946;2023-11-22T12:22:45;27.92;;;19.00;;
31210;SDS011;17836;50.948;3.946;2023-11-22T12:25:11;27.15;;;17.27;;
31210;SDS011;17836;50.948;3.946;2023-11-22T12:27:43;32.55;;;19.13;;
31210;SDS011;17836;50.948;3.946;2023-11-22T12:30:09;28.58;;;16.98;;
31210;SDS011;17836;50.948;3.946;2023-11-22T12:32:39;28.92;;;17.60;;
31210;SDS011;17836;50.948;3.946;2023-11-22T12:35:05;26.73;;;16.80;;
31210;SDS011;17836;50.948;3.946;2023-11-22T12:37:32;24.58;;;17.25;;
31210;SDS011;17836;50.948;3.946;2023-11-22T12:39:57;25.75;;;17.02;;
31210;SDS011;17836;50.948;3.946;2023-11-22T12:42:23;24.07;;;16.77;;
31210;SDS011;17836;50.948;3.946;2023-11-22T12:44:49;24.48;;;16.63;;
31210;SDS011;17836;50.948;3.946;2023-11-22T12:47:15;25.38;;;17.63;;
31210;SDS011;17836;50.948;3.946;2023-11-22T12:49:44;30.77;;;18.02;;
31210;SDS011;17836;50.948;3.946;2023-11-22T12:52:12;35.03;;;17.08;;
31210;SDS011;17836;50.948;3.946;2023-11-22T12:54:39;23.80;;;16.92;;
31210;SDS011;17836;50.948;3.946;2023-11-22T12:57:09;23.23;;;16.80;;
31210;SDS011;17836;50.948;3.946;2023-11-22T13:02:00;25.67;;;16.90;;
31210;SDS011;17836;50.948;3.946;2023-11-22T13:04:25;24.42;;;16.27;;
31210;SDS011;17836;50.948;3.946;2023-11-22T13:06:51;27.00;;;17.55;;
31210;SDS011;17836;50.948;3.946;2023-11-22T13:09:17;26.25;;;18.02;;
31210;SDS011;17836;50.948;3.946;2023-11-22T13:11:42;29.65;;;18.95;;
31210;SDS011;17836;50.948;3.946;2023-11-22T13:14:11;28.77;;;18.65;;
31210;SDS011;17836;50.948;3.946;2023-11-22T13:16:39;28.50;;;18.30;;
31210;SDS011;17836;50.948;3.946;2023-11-22T13:19:04;26.00;;;16.75;;
31210;SDS011;17836;50.948;3.946;2023-11-22T13:21:30;25.90;;;18.77;;
31210;SDS011;17836;50.948;3.946;2023-11-22T13:23:56;30.02;;;18.20;;
31210;SDS011;17836;50.948;3.946;2023-11-22T13:26:22;24.00;;;17.52;;
31210;SDS011;17836;50.948;3.946;2023-11-22T13:28:47;23.40;;;16.60;;
31210;SDS011;17836;50.948;3.946;2023-11-22T13:31:15;25.37;;;18.07;;
31210;SDS011;17836;50.948;3.946;2023-11-22T13:33:40;28.13;;;17.48;;
31210;SDS011;17836;50.948;3.946;2023-11-22T13:36:08;24.15;;;17.50;;
31210;SDS011;17836;50.948;3.946;2023-11-22T13:38:34;27.70;;;16.65;;
31210;SDS011;17836;50.948;3.946;2023-11-22T13:40:59;28.35;;;17.00;;
31210;SDS011;17836;50.948;3.946;2023-11-22T13:43:25;23.33;;;16.70;;
31210;SDS011;17836;50.948;3.946;2023-11-22T13:45:52;31.08;;;17.23;;
31210;SDS011;17836;50.948;3.946;2023-11-22T13:48:17;26.20;;;17.70;;
31210;SDS011;17836;50.948;3.946;2023-11-22T13:50:43;20.70;;;15.77;;
31210;SDS011;17836;50.948;3.946;2023-11-22T13:53:08;28.85;;;16.90;;
31210;SDS011;17836;50.948;3.946;2023-11-22T13:55:35;24.20;;;16.65;;
31210;SDS011;17836;50.948;3.946;2023-11-22T13:58:02;22.45;;;16.15;;
31210;SDS011;17836;50.948;3.946;2023-11-22T14:00:28;22.10;;;15.85;;
31210;SDS011;17836;50.948;3.946;2023-11-22T14:02:58;18.97;;;15.60;;
31210;SDS011;17836;50.948;3.946;2023-11-22T14:05:29;23.67;;;15.60;;
31210;SDS011;17836;50.948;3.946;2023-11-22T14:07:54;20.65;;;15.65;;
31210;SDS011;17836;50.948;3.946;2023-11-22T14:10:20;23.63;;;17.33;;
31210;SDS011;17836;50.948;3.946;2023-11-22T14:12:47;24.13;;;16.95;;
31210;SDS011;17836;50.948;3.946;2023-11-22T14:15:13;24.70;;;17.35;;
31210;SDS011;17836;50.948;3.946;2023-11-22T14:17:39;24.83;;;16.75;;
31210;SDS011;17836;50.948;3.946;2023-11-22T14:20:06;23.90;;;15.63;;
31210;SDS011;17836;50.948;3.946;2023-11-22T14:22:34;21.90;;;15.68;;
31210;SDS011;17836;50.948;3.946;2023-11-22T14:25:04;26.33;;;16.45;;
31210;SDS011;17836;50.948;3.946;2023-11-22T14:27:33;29.23;;;16.85;;
31210;SDS011;17836;50.948;3.946;2023-11-22T14:29:59;23.27;;;16.45;;
31210;SDS011;17836;50.948;3.946;2023-11-22T14:32:24;24.08;;;16.63;;
31210;SDS011;17836;50.948;3.946;2023-11-22T14:34:49;24.47;;;16.43;;
31210;SDS011;17836;50.948;3.946;2023-11-22T14:37:14;22.60;;;17.35;;
31210;SDS011;17836;50.948;3.946;2023-11-22T14:39:40;28.48;;;16.73;;
31210;SDS011;17836;50.948;3.946;2023-11-22T14:42:06;22.63;;;15.68;;
31210;SDS011;17836;50.948;3.946;2023-11-22T14:44:32;27.45;;;16.95;;
31210;SDS011;17836;50.948;3.946;2023-11-22T14:47:00;25.23;;;17.23;;
31210;SDS011;17836;50.948;3.946;2023-11-22T14:49:31;26.60;;;15.98;;
31210;SDS011;17836;50.948;3.946;2023-11-22T14:51:58;26.33;;;17.17;;
31210;SDS011;17836;50.948;3.946;2023-11-22T14:54:24;26.92;;;18.35;;
31210;SDS011;17836;50.948;3.946;2023-11-22T14:56:49;29.25;;;17.63;;
31210;SDS011;17836;50.948;3.946;2023-11-22T14:59:14;29.40;;;16.95;;
31210;SDS011;17836;50.948;3.946;2023-11-22T15:01:41;35.70;;;18.20;;
31210;SDS011;17836;50.948;3.946;2023-11-22T15:04:11;32.38;;;19.60;;
31210;SDS011;17836;50.948;3.946;2023-11-22T15:06:36;32.40;;;18.83;;
31210;SDS011;17836;50.948;3.946;2023-11-22T15:09:01;29.97;;;18.70;;
31210;SDS011;17836;50.948;3.946;2023-11-22T15:11:28;31.95;;;18.30;;
31210;SDS011;17836;50.948;3.946;2023-11-22T15:13:55;32.30;;;19.10;;
31210;SDS011;17836;50.948;3.946;2023-11-22T15:16:20;33.17;;;19.60;;
31210;SDS011;17836;50.948;3.946;2023-11-22T15:18:45;31.63;;;19.13;;
31210;SDS011;17836;50.948;3.946;2023-11-22T15:21:13;28.23;;;19.38;;
31210;SDS011;17836;50.948;3.946;2023-11-22T15:23:38;29.25;;;20.60;;